createdAt,value
2022-08-10T00:00:02.760Z,18.00
2022-08-10T00:02:53.561Z,17.90
2022-08-10T00:05:43.367Z,17.90
2022-08-10T00:08:37.989Z,17.90
2022-08-10T00:11:24.314Z,17.80
2022-08-10T00:14:10.281Z,17.80
2022-08-10T00:16:56.210Z,17.70
2022-08-10T00:20:02.953Z,17.70
2022-08-10T00:22:57.588Z,17.70
2022-08-10T00:25:44.570Z,17.70
2022-08-10T00:28:31.061Z,17.60
2022-08-10T00:31:16.990Z,17.60
2022-08-10T00:34:03.156Z,17.60
2022-08-10T00:36:49.118Z,17.60
2022-08-10T00:39:36.321Z,17.60
2022-08-10T00:42:23.607Z,17.60
2022-08-10T00:45:10.063Z,17.60
2022-08-10T00:47:55.986Z,17.50
2022-08-10T00:50:42.269Z,17.50
2022-08-10T00:53:29.789Z,17.50
2022-08-10T00:57:12.486Z,17.50
2022-08-10T00:59:23.177Z,17.60
2022-08-10T01:02:11.811Z,17.40
2022-08-10T01:05:01.918Z,17.30
2022-08-10T01:08:00.690Z,17.30
2022-08-10T01:10:58.419Z,17.30
2022-08-10T01:13:55.349Z,17.30
2022-08-10T01:17:06.734Z,17.30
2022-08-10T01:19:58.837Z,17.30
2022-08-10T01:23:09.978Z,17.30
2022-08-10T01:26:11.743Z,17.20
2022-08-10T01:29:31.498Z,17.20
2022-08-10T01:32:19.502Z,17.20
2022-08-10T01:35:25.645Z,17.10
2022-08-10T01:38:14.221Z,17.00
2022-08-10T01:41:09.788Z,17.00
2022-08-10T01:44:03.899Z,17.00
2022-08-10T01:46:56.851Z,17.00
2022-08-10T01:49:45.906Z,16.90
2022-08-10T01:52:34.374Z,16.80
2022-08-10T01:55:21.518Z,16.90
2022-08-10T01:58:10.497Z,16.90
2022-08-10T02:00:58.755Z,16.90
2022-08-10T02:04:03.127Z,16.80
2022-08-10T02:06:53.737Z,16.80
2022-08-10T02:09:43.754Z,16.80
2022-08-10T02:12:33.176Z,16.80
2022-08-10T02:15:20.759Z,16.80
2022-08-10T02:18:08.598Z,16.80
2022-08-10T02:20:55.655Z,16.80
2022-08-10T02:23:43.241Z,16.80
2022-08-10T02:26:30.153Z,16.70
2022-08-10T02:29:17.454Z,16.70
2022-08-10T02:32:06.167Z,16.70
2022-08-10T02:34:57.166Z,16.70
2022-08-10T02:37:47.586Z,16.60
2022-08-10T02:45:13.074Z,16.60
2022-08-10T02:45:20.595Z,16.50
2022-08-10T02:47:08.691Z,16.50
2022-08-10T02:50:10.175Z,16.50
2022-08-10T02:53:55.044Z,16.40
2022-08-10T02:56:49.846Z,16.40
2022-08-10T02:59:43.002Z,16.40
2022-08-10T03:02:39.054Z,16.40
2022-08-10T03:05:25.461Z,16.40
2022-08-10T03:08:14.204Z,16.30
2022-08-10T03:11:03.943Z,16.30
2022-08-10T03:13:59.840Z,16.30
2022-08-10T03:16:47.470Z,16.20
2022-08-10T03:20:35.900Z,16.20
2022-08-10T03:22:42.928Z,16.10
2022-08-10T03:25:30.622Z,16.10
2022-08-10T03:28:20.782Z,16.10
2022-08-10T03:31:07.651Z,16.10
2022-08-10T03:33:54.522Z,16.10
2022-08-10T03:36:44.935Z,16.10
2022-08-10T03:39:31.254Z,16.10
2022-08-10T03:42:20.219Z,16.10
2022-08-10T03:45:09.497Z,16.10
2022-08-10T03:47:57.286Z,16.20
2022-08-10T03:50:50.808Z,16.10
2022-08-10T03:54:02.717Z,16.00
2022-08-10T03:56:46.305Z,15.90
2022-08-10T03:59:32.683Z,16.00
2022-08-10T04:02:46.987Z,15.90
2022-08-10T04:05:26.429Z,15.90
2022-08-10T04:08:25.558Z,15.90
2022-08-10T04:11:12.646Z,15.90
2022-08-10T04:13:58.830Z,15.90
2022-08-10T04:16:45.106Z,15.90
2022-08-10T04:19:44.456Z,15.90
2022-08-10T04:22:31.197Z,15.90
2022-08-10T04:25:18.428Z,15.80
2022-08-10T04:28:05.249Z,15.80
2022-08-10T04:30:53.953Z,15.80
2022-08-10T04:33:45.234Z,15.80
2022-08-10T04:36:33.221Z,15.80
2022-08-10T04:39:19.664Z,15.80
2022-08-10T04:42:06.391Z,15.90
2022-08-10T04:44:52.605Z,15.90
2022-08-10T04:48:00.258Z,15.80
2022-08-10T04:50:45.484Z,15.90
2022-08-10T04:54:03.238Z,15.90
2022-08-10T04:56:42.076Z,15.90
2022-08-10T04:59:27.862Z,15.90
2022-08-10T05:02:29.285Z,15.90
2022-08-10T05:05:17.022Z,15.90
2022-08-10T05:08:02.825Z,15.90
2022-08-10T05:10:48.949Z,15.90
2022-08-10T05:13:34.873Z,15.90
2022-08-10T05:16:31.977Z,16.00
2022-08-10T05:20:01.377Z,16.00
2022-08-10T05:22:24.838Z,16.10
2022-08-10T05:25:14.201Z,16.10
2022-08-10T05:28:04.381Z,16.20
2022-08-10T05:30:52.518Z,16.30
2022-08-10T05:33:38.436Z,16.30
2022-08-10T05:36:25.095Z,16.40
2022-08-10T05:39:12.437Z,16.50
2022-08-10T05:42:01.622Z,16.60
2022-08-10T05:44:48.157Z,16.60
2022-08-10T05:48:54.752Z,16.60
2022-08-10T05:50:40.714Z,16.70
2022-08-10T05:54:03.254Z,16.70
2022-08-10T05:56:56.346Z,16.80
2022-08-10T06:00:35.038Z,16.80
2022-08-10T06:03:07.894Z,16.80
2022-08-10T06:06:00.826Z,16.90
2022-08-10T06:08:49.341Z,17.00
2022-08-10T06:12:25.651Z,17.10
2022-08-10T06:15:05.111Z,17.20
2022-08-10T06:18:01.942Z,17.20
2022-08-10T06:20:49.626Z,17.20
2022-08-10T06:23:36.930Z,17.30
2022-08-10T06:26:22.928Z,17.40
2022-08-10T06:29:12.911Z,17.50
2022-08-10T06:32:01.070Z,17.60
2022-08-10T06:34:50.966Z,17.80
2022-08-10T06:37:38.370Z,17.80
2022-08-10T06:40:43.110Z,17.90
2022-08-10T06:43:30.822Z,17.90
2022-08-10T06:46:18.809Z,18.00
2022-08-10T06:49:07.458Z,18.10
2022-08-10T06:51:57.600Z,18.20
2022-08-10T06:54:45.003Z,18.40
2022-08-10T06:57:32.926Z,18.50
2022-08-10T07:00:20.219Z,18.60
2022-08-10T07:03:09.929Z,18.70
2022-08-10T07:05:56.530Z,18.80
2022-08-10T07:08:43.891Z,18.90
2022-08-10T07:11:30.303Z,18.90
2022-08-10T07:14:18.787Z,19.00
2022-08-10T07:17:07.287Z,19.20
2022-08-10T07:20:03.227Z,19.30
2022-08-10T07:23:27.175Z,19.40
2022-08-10T07:26:02.056Z,19.50
2022-08-10T07:28:51.078Z,19.60
2022-08-10T07:31:57.126Z,19.70
2022-08-10T07:34:46.520Z,19.90
2022-08-10T07:37:36.811Z,20.10
2022-08-10T07:40:23.802Z,20.20
2022-08-10T07:43:11.221Z,20.30
2022-08-10T07:45:58.879Z,20.40
2022-08-10T07:48:49.112Z,20.50
2022-08-10T07:51:37.061Z,20.60
2022-08-10T07:54:27.188Z,20.70
2022-08-10T07:57:30.636Z,20.70
2022-08-10T08:00:18.285Z,20.80
2022-08-10T08:03:07.533Z,20.90
2022-08-10T08:06:03.123Z,21.10
2022-08-10T08:08:52.370Z,21.20
2022-08-10T08:11:41.182Z,21.40
2022-08-10T08:14:28.544Z,21.50
2022-08-10T08:17:17.238Z,21.60
2022-08-10T08:20:07.370Z,21.80
2022-08-10T08:24:09.318Z,21.80
2022-08-10T08:26:01.854Z,21.90
2022-08-10T08:28:50.710Z,21.90
2022-08-10T08:31:37.929Z,22.00
2022-08-10T08:34:46.162Z,22.10
2022-08-10T08:38:32.122Z,22.10
2022-08-10T08:40:47.987Z,22.10
2022-08-10T08:43:46.651Z,22.20
2022-08-10T08:47:51.599Z,22.30
2022-08-10T08:50:41.959Z,22.30
2022-08-10T08:54:03.638Z,22.40
2022-08-10T08:57:49.661Z,22.50
2022-08-10T09:00:48.246Z,22.60
2022-08-10T09:03:57.046Z,22.70
2022-08-10T09:07:59.740Z,22.80
2022-08-10T09:10:37.742Z,22.80
2022-08-10T09:13:49.201Z,22.90
2022-08-10T09:16:48.811Z,23.00
2022-08-10T09:19:47.090Z,23.10
2022-08-10T09:22:59.941Z,23.30
2022-08-10T09:25:56.566Z,23.50
2022-08-10T09:28:43.486Z,23.50
2022-08-10T09:31:40.989Z,23.60
2022-08-10T09:36:29.966Z,23.80
2022-08-10T09:38:26.652Z,24.00
2022-08-10T09:41:27.745Z,24.00
2022-08-10T09:44:57.130Z,24.10
2022-08-10T09:48:09.984Z,24.30
2022-08-10T09:51:46.400Z,24.50
2022-08-10T09:55:10.695Z,24.80
2022-08-10T09:58:08.854Z,25.10
2022-08-10T10:01:22.350Z,25.20
2022-08-10T10:04:43.363Z,25.40
2022-08-10T10:07:30.161Z,25.50
2022-08-10T10:10:46.621Z,25.70
2022-08-10T10:14:02.670Z,25.90
2022-08-10T10:17:16.699Z,25.90
2022-08-10T10:20:21.456Z,26.10
2022-08-10T10:23:14.897Z,26.20
2022-08-10T10:26:26.802Z,26.10
2022-08-10T10:29:55.612Z,26.20
2022-08-10T10:32:38.363Z,26.50
2022-08-10T10:35:27.328Z,26.70
2022-08-10T10:38:14.136Z,26.90
2022-08-10T10:41:28.557Z,27.10
2022-08-10T10:44:33.600Z,27.10
2022-08-10T10:47:33.156Z,27.00
2022-08-10T10:50:37.271Z,26.80
2022-08-10T10:53:32.658Z,26.80
2022-08-10T10:56:40.317Z,26.70
2022-08-10T10:59:56.313Z,26.80
2022-08-10T11:02:51.079Z,26.90
2022-08-10T11:05:47.269Z,27.10
2022-08-10T11:08:43.410Z,27.40
2022-08-10T11:12:01.360Z,27.30
2022-08-10T11:14:52.513Z,26.90
2022-08-10T11:18:16.498Z,26.70
2022-08-10T11:21:15.384Z,26.70
2022-08-10T11:24:48.539Z,26.40
2022-08-10T11:28:10.590Z,26.00
2022-08-10T11:31:15.349Z,25.60
2022-08-10T11:34:49.181Z,25.40
2022-08-10T11:38:30.318Z,25.50
2022-08-10T11:42:05.724Z,25.60
2022-08-10T11:44:21.352Z,25.80
2022-08-10T11:47:33.661Z,25.90
2022-08-10T11:50:33.182Z,26.00
2022-08-10T11:53:59.428Z,26.10
2022-08-10T11:57:01.297Z,26.10
2022-08-10T11:59:58.216Z,26.00
2022-08-10T12:02:50.988Z,26.00
2022-08-10T12:05:53.767Z,26.00
2022-08-10T12:10:05.278Z,26.00
2022-08-10T12:11:50.352Z,26.10
2022-08-10T12:15:00.757Z,26.10
2022-08-10T12:17:52.337Z,26.10
2022-08-10T12:20:43.449Z,26.20
2022-08-10T12:23:48.020Z,26.30
2022-08-10T12:27:23.741Z,26.30
2022-08-10T12:30:19.819Z,26.50
2022-08-10T12:33:31.754Z,26.60
2022-08-10T12:36:44.867Z,26.60
2022-08-10T12:39:37.518Z,26.50
2022-08-10T12:42:39.285Z,26.50
2022-08-10T12:45:36.968Z,26.50
2022-08-10T12:48:39.293Z,26.60
2022-08-10T12:51:30.814Z,26.60
2022-08-10T12:54:31.963Z,26.80
2022-08-10T12:57:22.825Z,27.00
2022-08-10T13:00:09.908Z,27.20
2022-08-10T13:03:07.720Z,27.20
2022-08-10T13:06:02.381Z,27.20
2022-08-10T13:09:10.663Z,27.20
2022-08-10T13:12:38.935Z,27.20
2022-08-10T13:15:45.768Z,27.30
2022-08-10T13:18:41.381Z,27.40
2022-08-10T13:21:33.736Z,27.30
2022-08-10T13:24:27.474Z,27.30
2022-08-10T13:27:25.814Z,27.30
2022-08-10T13:30:13.847Z,27.30
2022-08-10T13:33:00.762Z,27.40
2022-08-10T13:35:48.174Z,27.50
2022-08-10T13:38:45.604Z,27.70
2022-08-10T13:41:38.494Z,27.70
2022-08-10T13:44:31.903Z,27.60
2022-08-10T13:47:19.854Z,27.40
2022-08-10T13:50:19.342Z,27.40
2022-08-10T13:53:14.494Z,27.50
2022-08-10T13:56:05.258Z,27.50
2022-08-10T13:58:54.380Z,27.60
2022-08-10T14:01:45.975Z,27.50
2022-08-10T14:04:33.667Z,27.40
2022-08-10T14:07:21.273Z,27.30
2022-08-10T14:10:10.919Z,27.20
2022-08-10T14:13:01.941Z,26.90
2022-08-10T14:15:49.990Z,26.80
2022-08-10T14:18:36.546Z,26.80
2022-08-10T14:21:22.983Z,26.80
2022-08-10T14:24:25.702Z,26.70
2022-08-10T14:27:14.404Z,26.60
2022-08-10T14:30:01.475Z,26.60
2022-08-10T14:32:49.798Z,26.60
2022-08-10T14:36:20.366Z,26.60
2022-08-10T14:38:48.933Z,26.50
2022-08-10T14:42:01.593Z,26.50
2022-08-10T14:44:49.502Z,26.50
2022-08-10T14:47:52.782Z,26.50
2022-08-10T14:50:55.708Z,26.40
2022-08-10T14:53:42.978Z,26.50
2022-08-10T14:56:32.511Z,26.40
2022-08-10T14:59:20.309Z,26.30
2022-08-10T15:02:39.590Z,26.20
2022-08-10T15:05:18.015Z,26.20
2022-08-10T15:08:05.013Z,26.20
2022-08-10T15:10:59.989Z,26.20
2022-08-10T15:14:12.634Z,26.30
2022-08-10T15:16:55.745Z,26.30
2022-08-10T15:20:02.690Z,26.30
2022-08-10T15:23:05.148Z,26.30
2022-08-10T15:25:57.585Z,26.20
2022-08-10T15:29:22.711Z,26.20
2022-08-10T15:32:12.566Z,26.10
2022-08-10T15:35:20.167Z,26.10
2022-08-10T15:38:16.386Z,26.00
2022-08-10T15:41:11.070Z,26.00
2022-08-10T15:43:57.539Z,25.90
2022-08-10T15:46:50.320Z,25.90
2022-08-10T15:49:47.791Z,26.00
2022-08-10T15:53:00.030Z,26.00
2022-08-10T15:55:54.746Z,25.90
2022-08-10T15:58:51.168Z,25.90
2022-08-10T16:02:13.970Z,25.90
2022-08-10T16:05:40.868Z,25.90
2022-08-10T16:08:36.213Z,25.90
2022-08-10T16:11:44.632Z,25.80
2022-08-10T16:14:35.982Z,25.80
2022-08-10T16:17:23.367Z,25.70
2022-08-10T16:20:11.697Z,25.60
2022-08-10T16:23:04.165Z,25.60
2022-08-10T16:26:04.536Z,25.50
2022-08-10T16:29:07.517Z,25.50
2022-08-10T16:32:03.365Z,25.40
2022-08-10T16:34:52.080Z,25.40
2022-08-10T16:37:58.703Z,25.40
2022-08-10T16:40:46.353Z,25.40
2022-08-10T16:43:33.551Z,25.40
2022-08-10T16:46:21.565Z,25.30
2022-08-10T16:49:09.646Z,25.30
2022-08-10T16:51:56.560Z,25.20
2022-08-10T16:54:47.143Z,25.20
2022-08-10T16:57:40.522Z,25.10
2022-08-10T17:00:27.614Z,25.10
2022-08-10T17:04:04.593Z,25.00
2022-08-10T17:06:31.166Z,25.00
2022-08-10T17:09:22.144Z,25.00
2022-08-10T17:12:11.575Z,24.90
2022-08-10T17:15:10.471Z,24.90
2022-08-10T17:18:04.001Z,24.80
2022-08-10T17:20:51.425Z,24.80
2022-08-10T17:23:40.706Z,24.80
2022-08-10T17:26:37.087Z,24.70
2022-08-10T17:29:58.166Z,24.70
2022-08-10T17:32:59.262Z,24.70
2022-08-10T17:35:49.022Z,24.60
2022-08-10T17:38:37.927Z,24.60
2022-08-10T17:41:29.067Z,24.50
2022-08-10T17:44:16.126Z,24.50
2022-08-10T17:47:10.885Z,24.50
2022-08-10T17:49:59.189Z,24.40
2022-08-10T17:52:45.927Z,24.40
2022-08-10T17:55:36.749Z,24.40
2022-08-10T17:58:26.426Z,24.30
2022-08-10T18:01:40.393Z,24.30
2022-08-10T18:04:26.165Z,24.20
2022-08-10T18:07:13.601Z,24.10
2022-08-10T18:10:01.771Z,24.10
2022-08-10T18:12:51.230Z,24.00
2022-08-10T18:15:41.242Z,23.90
2022-08-10T18:18:29.334Z,23.90
2022-08-10T18:21:31.126Z,23.80
2022-08-10T18:24:19.398Z,23.70
2022-08-10T18:27:07.726Z,23.60
2022-08-10T18:29:57.280Z,23.60
2022-08-10T18:32:49.238Z,23.60
2022-08-10T18:35:35.540Z,23.50
2022-08-10T18:38:24.461Z,23.40
2022-08-10T18:41:21.673Z,23.30
2022-08-10T18:44:18.914Z,23.20
2022-08-10T18:47:31.530Z,23.20
2022-08-10T18:50:24.874Z,23.10
2022-08-10T18:53:22.614Z,23.00
2022-08-10T18:56:31.740Z,22.90
2022-08-10T18:59:23.719Z,22.90
2022-08-10T19:03:01.048Z,22.80
2022-08-10T19:06:01.874Z,22.70
2022-08-10T19:08:59.922Z,22.70
2022-08-10T19:12:04.570Z,22.60
2022-08-10T19:15:01.760Z,22.40
2022-08-10T19:18:08.050Z,22.40
2022-08-10T19:21:00.774Z,22.40
2022-08-10T19:24:17.987Z,22.30
2022-08-10T19:27:15.124Z,22.20
2022-08-10T19:30:12.834Z,22.10
2022-08-10T19:33:47.033Z,22.00
2022-08-10T19:36:46.578Z,22.00
2022-08-10T19:40:00.044Z,21.90
2022-08-10T19:43:30.719Z,21.90
2022-08-10T19:46:38.524Z,21.80
2022-08-10T19:49:41.681Z,21.70
2022-08-10T19:52:32.762Z,21.60
2022-08-10T19:55:18.874Z,21.60
2022-08-10T19:58:06.729Z,21.50
2022-08-10T20:01:03.298Z,21.50
2022-08-10T20:03:57.405Z,21.50
2022-08-10T20:06:49.717Z,21.40
2022-08-10T20:09:43.037Z,21.40
2022-08-10T20:12:47.839Z,21.40
2022-08-10T20:15:48.178Z,21.30
2022-08-10T20:18:43.382Z,21.30
2022-08-10T20:21:43.217Z,21.20
2022-08-10T20:24:34.751Z,21.10
2022-08-10T20:27:58.933Z,21.00
2022-08-10T20:30:53.099Z,21.00
2022-08-10T20:33:50.123Z,20.90
2022-08-10T20:36:47.544Z,20.90
2022-08-10T20:39:46.619Z,20.80
2022-08-10T20:42:51.610Z,20.70
2022-08-10T20:46:07.341Z,20.70
2022-08-10T20:49:06.780Z,20.70
2022-08-10T20:51:58.908Z,20.70
2022-08-10T20:54:58.335Z,20.60
2022-08-10T20:58:06.304Z,20.60
2022-08-10T21:00:59.965Z,20.50
2022-08-10T21:04:06.050Z,20.50
2022-08-10T21:07:05.654Z,20.40
2022-08-10T21:10:16.407Z,20.40
2022-08-10T21:13:17.617Z,20.30
2022-08-10T21:16:31.027Z,20.40
2022-08-10T21:19:42.424Z,20.40
2022-08-10T21:22:45.749Z,20.30
2022-08-10T21:25:58.938Z,20.20
2022-08-10T21:28:59.831Z,20.20
2022-08-10T21:31:52.750Z,20.10
2022-08-10T21:34:55.348Z,20.10
2022-08-10T21:37:58.693Z,20.00
2022-08-10T21:41:56.442Z,20.00
2022-08-10T21:45:16.586Z,20.00
2022-08-10T21:48:57.117Z,19.90
2022-08-10T21:52:04.873Z,19.90
2022-08-10T21:55:19.444Z,19.90
2022-08-10T21:58:35.959Z,19.80
2022-08-10T22:02:15.094Z,19.70
2022-08-10T22:05:21.333Z,19.60
2022-08-10T22:08:29.298Z,19.60
2022-08-10T22:11:38.753Z,19.60
2022-08-10T22:14:55.507Z,19.50
2022-08-10T22:18:05.925Z,19.40
2022-08-10T22:21:45.768Z,19.40
2022-08-10T22:25:17.372Z,19.40
2022-08-10T22:28:22.129Z,19.30
2022-08-10T22:31:47.236Z,19.20
2022-08-10T22:35:20.447Z,19.10
2022-08-10T22:38:34.109Z,19.00
2022-08-10T22:41:51.074Z,18.90
2022-08-10T22:45:01.318Z,18.90
2022-08-10T22:48:06.374Z,18.80
2022-08-10T22:51:00.160Z,18.70
2022-08-10T22:54:11.172Z,18.70
2022-08-10T22:57:37.343Z,18.60
2022-08-10T23:00:31.403Z,18.60
2022-08-10T23:03:24.051Z,18.60
2022-08-10T23:06:18.086Z,18.50
2022-08-10T23:09:08.645Z,18.50
2022-08-10T23:11:59.038Z,18.40
2022-08-10T23:14:50.220Z,18.30
2022-08-10T23:18:11.477Z,18.20
2022-08-10T23:21:00.142Z,18.20
2022-08-10T23:23:47.624Z,18.10
2022-08-10T23:26:34.366Z,18.20
2022-08-10T23:29:23.251Z,18.20
2022-08-10T23:32:10.221Z,18.20
2022-08-10T23:36:30.009Z,18.20
2022-08-10T23:38:07.372Z,18.10
2022-08-10T23:40:56.451Z,18.10
2022-08-10T23:44:03.244Z,18.10
2022-08-10T23:46:52.166Z,18.10
2022-08-10T23:49:39.221Z,18.10
2022-08-10T23:52:33.419Z,18.10
2022-08-10T23:55:23.853Z,18.10
2022-08-10T23:58:30.062Z,18.00
